sensor_id;sensor_type;location;lat;lon;timestamp;P1;durP1;ratioP1;P2;durP2;ratioP2
39018;SDS011;24786;51.984;5.872;2022-08-21T00:00:52;4.20;;;2.80;;
39018;SDS011;24786;51.984;5.872;2022-08-21T00:03:18;5.45;;;2.70;;
39018;SDS011;24786;51.984;5.872;2022-08-21T00:05:46;4.05;;;2.80;;
39018;SDS011;24786;51.984;5.872;2022-08-21T00:08:14;5.82;;;3.08;;
39018;SDS011;24786;51.984;5.872;2022-08-21T00:10:45;5.85;;;2.90;;
39018;SDS011;24786;51.984;5.872;2022-08-21T00:13:11;4.60;;;2.88;;
39018;SDS011;24786;51.984;5.872;2022-08-21T00:15:38;3.92;;;2.72;;
39018;SDS011;24786;51.984;5.872;2022-08-21T00:18:05;4.03;;;2.60;;
39018;SDS011;24786;51.984;5.872;2022-08-21T00:20:32;5.72;;;2.88;;
39018;SDS011;24786;51.984;5.872;2022-08-21T00:22:58;6.22;;;3.05;;
39018;SDS011;24786;51.984;5.872;2022-08-21T00:25:24;4.53;;;2.90;;
39018;SDS011;24786;51.984;5.872;2022-08-21T00:27:50;7.32;;;3.53;;
39018;SDS011;24786;51.984;5.872;2022-08-21T00:30:17;4.65;;;3.10;;
39018;SDS011;24786;51.984;5.872;2022-08-21T00:32:44;7.40;;;3.05;;
39018;SDS011;24786;51.984;5.872;2022-08-21T00:35:12;4.57;;;3.10;;
39018;SDS011;24786;51.984;5.872;2022-08-21T00:37:41;4.05;;;2.67;;
39018;SDS011;24786;51.984;5.872;2022-08-21T00:40:07;6.70;;;2.70;;
39018;SDS011;24786;51.984;5.872;2022-08-21T00:42:36;5.65;;;2.92;;
39018;SDS011;24786;51.984;5.872;2022-08-21T00:45:02;5.93;;;3.53;;
39018;SDS011;24786;51.984;5.872;2022-08-21T00:47:29;3.95;;;3.20;;
39018;SDS011;24786;51.984;5.872;2022-08-21T00:49:54;4.97;;;3.17;;
39018;SDS011;24786;51.984;5.872;2022-08-21T00:52:24;6.07;;;3.35;;
39018;SDS011;24786;51.984;5.872;2022-08-21T00:54:53;4.22;;;3.00;;
39018;SDS011;24786;51.984;5.872;2022-08-21T00:57:24;4.53;;;3.33;;
39018;SDS011;24786;51.984;5.872;2022-08-21T00:59:54;4.68;;;3.42;;
39018;SDS011;24786;51.984;5.872;2022-08-21T01:02:22;5.03;;;3.22;;
39018;SDS011;24786;51.984;5.872;2022-08-21T01:04:48;6.35;;;3.33;;
39018;SDS011;24786;51.984;5.872;2022-08-21T01:07:14;6.00;;;3.33;;
39018;SDS011;24786;51.984;5.872;2022-08-21T01:09:40;4.30;;;2.97;;
39018;SDS011;24786;51.984;5.872;2022-08-21T01:12:07;5.20;;;3.00;;
39018;SDS011;24786;51.984;5.872;2022-08-21T01:14:33;4.00;;;3.45;;
39018;SDS011;24786;51.984;5.872;2022-08-21T01:16:59;5.75;;;3.58;;
39018;SDS011;24786;51.984;5.872;2022-08-21T01:19:27;4.05;;;3.65;;
39018;SDS011;24786;51.984;5.872;2022-08-21T01:21:54;3.95;;;3.53;;
39018;SDS011;24786;51.984;5.872;2022-08-21T01:24:20;3.97;;;3.10;;
39018;SDS011;24786;51.984;5.872;2022-08-21T01:26:46;7.40;;;3.67;;
39018;SDS011;24786;51.984;5.872;2022-08-21T01:31:47;3.80;;;3.45;;
39018;SDS011;24786;51.984;5.872;2022-08-21T01:34:12;4.75;;;3.50;;
39018;SDS011;24786;51.984;5.872;2022-08-21T01:36:40;6.45;;;3.70;;
39018;SDS011;24786;51.984;5.872;2022-08-21T01:39:06;4.95;;;3.53;;
39018;SDS011;24786;51.984;5.872;2022-08-21T01:41:32;5.07;;;3.55;;
39018;SDS011;24786;51.984;5.872;2022-08-21T01:43:57;7.53;;;3.70;;
39018;SDS011;24786;51.984;5.872;2022-08-21T01:46:23;3.45;;;3.15;;
39018;SDS011;24786;51.984;5.872;2022-08-21T01:48:48;5.18;;;3.78;;
39018;SDS011;24786;51.984;5.872;2022-08-21T01:51:14;6.05;;;3.78;;
39018;SDS011;24786;51.984;5.872;2022-08-21T01:53:40;5.57;;;3.80;;
39018;SDS011;24786;51.984;5.872;2022-08-21T01:56:06;5.47;;;3.55;;
39018;SDS011;24786;51.984;5.872;2022-08-21T01:58:34;4.55;;;4.05;;
39018;SDS011;24786;51.984;5.872;2022-08-21T02:01:00;7.03;;;3.97;;
39018;SDS011;24786;51.984;5.872;2022-08-21T02:03:30;6.50;;;3.75;;
39018;SDS011;24786;51.984;5.872;2022-08-21T02:05:56;7.50;;;4.15;;
39018;SDS011;24786;51.984;5.872;2022-08-21T02:08:22;5.97;;;4.05;;
39018;SDS011;24786;51.984;5.872;2022-08-21T02:10:49;6.05;;;4.53;;
39018;SDS011;24786;51.984;5.872;2022-08-21T02:13:15;5.50;;;4.13;;
39018;SDS011;24786;51.984;5.872;2022-08-21T02:15:42;7.30;;;4.50;;
39018;SDS011;24786;51.984;5.872;2022-08-21T02:18:08;8.50;;;4.95;;
39018;SDS011;24786;51.984;5.872;2022-08-21T02:20:35;6.05;;;4.32;;
39018;SDS011;24786;51.984;5.872;2022-08-21T02:23:03;6.50;;;4.40;;
39018;SDS011;24786;51.984;5.872;2022-08-21T02:25:30;6.97;;;4.68;;
39018;SDS011;24786;51.984;5.872;2022-08-21T02:27:56;7.63;;;5.00;;
39018;SDS011;24786;51.984;5.872;2022-08-21T02:30:27;6.25;;;4.28;;
39018;SDS011;24786;51.984;5.872;2022-08-21T02:32:55;8.52;;;4.65;;
39018;SDS011;24786;51.984;5.872;2022-08-21T02:35:20;6.63;;;4.55;;
39018;SDS011;24786;51.984;5.872;2022-08-21T02:37:51;6.28;;;4.38;;
39018;SDS011;24786;51.984;5.872;2022-08-21T02:40:19;7.43;;;4.65;;
39018;SDS011;24786;51.984;5.872;2022-08-21T02:42:46;7.53;;;4.53;;
39018;SDS011;24786;51.984;5.872;2022-08-21T02:45:12;9.27;;;4.97;;
39018;SDS011;24786;51.984;5.872;2022-08-21T02:47:39;6.03;;;4.95;;
39018;SDS011;24786;51.984;5.872;2022-08-21T02:50:12;8.13;;;4.78;;
39018;SDS011;24786;51.984;5.872;2022-08-21T02:52:37;6.65;;;4.97;;
39018;SDS011;24786;51.984;5.872;2022-08-21T02:55:03;7.82;;;4.90;;
39018;SDS011;24786;51.984;5.872;2022-08-21T02:57:29;6.35;;;5.07;;
39018;SDS011;24786;51.984;5.872;2022-08-21T02:59:57;9.57;;;5.28;;
39018;SDS011;24786;51.984;5.872;2022-08-21T03:02:23;7.70;;;5.47;;
39018;SDS011;24786;51.984;5.872;2022-08-21T03:04:48;8.93;;;5.50;;
39018;SDS011;24786;51.984;5.872;2022-08-21T03:07:14;7.97;;;5.32;;
39018;SDS011;24786;51.984;5.872;2022-08-21T03:09:40;7.55;;;5.57;;
39018;SDS011;24786;51.984;5.872;2022-08-21T03:12:05;5.90;;;4.93;;
39018;SDS011;24786;51.984;5.872;2022-08-21T03:14:31;7.30;;;5.10;;
39018;SDS011;24786;51.984;5.872;2022-08-21T03:16:57;6.50;;;5.22;;
39018;SDS011;24786;51.984;5.872;2022-08-21T03:19:22;11.65;;;6.35;;
39018;SDS011;24786;51.984;5.872;2022-08-21T03:21:48;9.80;;;6.13;;
39018;SDS011;24786;51.984;5.872;2022-08-21T03:24:14;10.10;;;6.30;;
39018;SDS011;24786;51.984;5.872;2022-08-21T03:26:39;8.40;;;6.00;;
39018;SDS011;24786;51.984;5.872;2022-08-21T03:29:05;8.18;;;5.72;;
39018;SDS011;24786;51.984;5.872;2022-08-21T03:31:32;9.88;;;5.85;;
39018;SDS011;24786;51.984;5.872;2022-08-21T03:33:58;8.20;;;5.88;;
39018;SDS011;24786;51.984;5.872;2022-08-21T03:36:24;7.35;;;6.20;;
39018;SDS011;24786;51.984;5.872;2022-08-21T03:38:50;11.68;;;6.90;;
39018;SDS011;24786;51.984;5.872;2022-08-21T03:41:16;7.32;;;5.85;;
39018;SDS011;24786;51.984;5.872;2022-08-21T03:43:41;9.23;;;6.43;;
39018;SDS011;24786;51.984;5.872;2022-08-21T03:46:07;12.25;;;7.72;;
39018;SDS011;24786;51.984;5.872;2022-08-21T03:48:33;13.68;;;6.60;;
39018;SDS011;24786;51.984;5.872;2022-08-21T03:51:01;10.07;;;6.00;;
39018;SDS011;24786;51.984;5.872;2022-08-21T03:53:27;8.32;;;6.05;;
39018;SDS011;24786;51.984;5.872;2022-08-21T03:55:52;8.73;;;6.43;;
39018;SDS011;24786;51.984;5.872;2022-08-21T03:58:21;9.60;;;6.80;;
39018;SDS011;24786;51.984;5.872;2022-08-21T04:00:49;12.77;;;6.38;;
39018;SDS011;24786;51.984;5.872;2022-08-21T04:03:22;9.95;;;6.97;;
39018;SDS011;24786;51.984;5.872;2022-08-21T04:05:47;11.68;;;7.22;;
39018;SDS011;24786;51.984;5.872;2022-08-21T04:08:14;8.95;;;7.38;;
39018;SDS011;24786;51.984;5.872;2022-08-21T04:10:42;10.65;;;7.72;;
39018;SDS011;24786;51.984;5.872;2022-08-21T04:13:09;9.02;;;6.47;;
39018;SDS011;24786;51.984;5.872;2022-08-21T04:15:35;8.55;;;6.88;;
39018;SDS011;24786;51.984;5.872;2022-08-21T04:18:02;10.00;;;7.00;;
39018;SDS011;24786;51.984;5.872;2022-08-21T04:20:28;10.32;;;7.25;;
39018;SDS011;24786;51.984;5.872;2022-08-21T04:22:54;12.77;;;7.57;;
39018;SDS011;24786;51.984;5.872;2022-08-21T04:25:21;9.55;;;7.35;;
39018;SDS011;24786;51.984;5.872;2022-08-21T04:27:48;8.65;;;7.05;;
39018;SDS011;24786;51.984;5.872;2022-08-21T04:30:14;8.43;;;6.47;;
39018;SDS011;24786;51.984;5.872;2022-08-21T04:32:41;13.10;;;7.47;;
39018;SDS011;24786;51.984;5.872;2022-08-21T04:35:09;9.75;;;7.10;;
39018;SDS011;24786;51.984;5.872;2022-08-21T04:37:36;10.52;;;7.68;;
39018;SDS011;24786;51.984;5.872;2022-08-21T04:40:03;13.25;;;8.20;;
39018;SDS011;24786;51.984;5.872;2022-08-21T04:42:30;14.45;;;7.90;;
39018;SDS011;24786;51.984;5.872;2022-08-21T04:44:56;8.50;;;6.35;;
39018;SDS011;24786;51.984;5.872;2022-08-21T04:47:27;9.20;;;7.95;;
39018;SDS011;24786;51.984;5.872;2022-08-21T04:49:54;12.13;;;8.20;;
39018;SDS011;24786;51.984;5.872;2022-08-21T04:52:20;12.05;;;8.02;;
39018;SDS011;24786;51.984;5.872;2022-08-21T04:54:47;11.33;;;7.57;;
39018;SDS011;24786;51.984;5.872;2022-08-21T04:57:16;10.65;;;8.23;;
39018;SDS011;24786;51.984;5.872;2022-08-21T04:59:44;9.63;;;7.53;;
39018;SDS011;24786;51.984;5.872;2022-08-21T05:02:12;9.50;;;7.57;;
39018;SDS011;24786;51.984;5.872;2022-08-21T05:04:40;8.98;;;7.60;;
39018;SDS011;24786;51.984;5.872;2022-08-21T05:07:10;10.13;;;8.07;;
39018;SDS011;24786;51.984;5.872;2022-08-21T05:09:42;9.25;;;7.18;;
39018;SDS011;24786;51.984;5.872;2022-08-21T05:12:07;13.85;;;7.93;;
39018;SDS011;24786;51.984;5.872;2022-08-21T05:14:33;11.40;;;8.32;;
39018;SDS011;24786;51.984;5.872;2022-08-21T05:16:59;10.38;;;8.20;;
39018;SDS011;24786;51.984;5.872;2022-08-21T05:19:25;12.65;;;8.57;;
39018;SDS011;24786;51.984;5.872;2022-08-21T05:21:50;10.32;;;7.18;;
39018;SDS011;24786;51.984;5.872;2022-08-21T05:24:16;10.43;;;7.45;;
39018;SDS011;24786;51.984;5.872;2022-08-21T05:26:42;10.45;;;7.38;;
39018;SDS011;24786;51.984;5.872;2022-08-21T05:29:09;13.02;;;8.13;;
39018;SDS011;24786;51.984;5.872;2022-08-21T05:31:35;10.85;;;7.68;;
39018;SDS011;24786;51.984;5.872;2022-08-21T05:34:02;8.18;;;7.00;;
39018;SDS011;24786;51.984;5.872;2022-08-21T05:36:28;9.20;;;7.50;;
39018;SDS011;24786;51.984;5.872;2022-08-21T05:38:54;10.05;;;7.72;;
39018;SDS011;24786;51.984;5.872;2022-08-21T05:41:19;8.27;;;7.05;;
39018;SDS011;24786;51.984;5.872;2022-08-21T05:43:45;13.13;;;8.23;;
39018;SDS011;24786;51.984;5.872;2022-08-21T05:46:10;11.55;;;8.30;;
39018;SDS011;24786;51.984;5.872;2022-08-21T05:48:36;11.55;;;8.43;;
39018;SDS011;24786;51.984;5.872;2022-08-21T05:51:05;12.18;;;7.65;;
39018;SDS011;24786;51.984;5.872;2022-08-21T05:53:34;10.20;;;8.20;;
39018;SDS011;24786;51.984;5.872;2022-08-21T05:56:00;12.07;;;8.52;;
39018;SDS011;24786;51.984;5.872;2022-08-21T05:58:28;12.43;;;7.88;;
39018;SDS011;24786;51.984;5.872;2022-08-21T06:00:54;11.95;;;7.95;;
39018;SDS011;24786;51.984;5.872;2022-08-21T06:03:23;11.38;;;9.38;;
39018;SDS011;24786;51.984;5.872;2022-08-21T06:05:51;11.15;;;9.05;;
39018;SDS011;24786;51.984;5.872;2022-08-21T06:08:18;12.88;;;8.80;;
39018;SDS011;24786;51.984;5.872;2022-08-21T06:10:45;10.32;;;8.52;;
39018;SDS011;24786;51.984;5.872;2022-08-21T06:13:11;8.02;;;7.00;;
39018;SDS011;24786;51.984;5.872;2022-08-21T06:15:37;13.68;;;9.02;;
39018;SDS011;24786;51.984;5.872;2022-08-21T06:18:03;12.25;;;9.05;;
39018;SDS011;24786;51.984;5.872;2022-08-21T06:20:29;11.35;;;8.07;;
39018;SDS011;24786;51.984;5.872;2022-08-21T06:22:55;7.97;;;7.00;;
39018;SDS011;24786;51.984;5.872;2022-08-21T06:25:21;11.45;;;8.02;;
39018;SDS011;24786;51.984;5.872;2022-08-21T06:27:46;9.93;;;8.27;;
39018;SDS011;24786;51.984;5.872;2022-08-21T06:30:12;12.48;;;9.02;;
39018;SDS011;24786;51.984;5.872;2022-08-21T06:32:38;10.93;;;8.98;;
39018;SDS011;24786;51.984;5.872;2022-08-21T06:35:04;9.43;;;6.97;;
39018;SDS011;24786;51.984;5.872;2022-08-21T06:37:31;11.93;;;7.50;;
39018;SDS011;24786;51.984;5.872;2022-08-21T06:39:57;8.63;;;7.20;;
39018;SDS011;24786;51.984;5.872;2022-08-21T06:42:23;8.63;;;7.25;;
39018;SDS011;24786;51.984;5.872;2022-08-21T06:44:48;12.02;;;6.97;;
39018;SDS011;24786;51.984;5.872;2022-08-21T06:47:14;14.73;;;7.72;;
39018;SDS011;24786;51.984;5.872;2022-08-21T06:49:40;12.45;;;8.00;;
39018;SDS011;24786;51.984;5.872;2022-08-21T06:52:10;9.15;;;6.05;;
39018;SDS011;24786;51.984;5.872;2022-08-21T06:54:37;11.38;;;7.53;;
39018;SDS011;24786;51.984;5.872;2022-08-21T06:57:02;10.23;;;7.57;;
39018;SDS011;24786;51.984;5.872;2022-08-21T06:59:28;9.20;;;6.63;;
39018;SDS011;24786;51.984;5.872;2022-08-21T07:01:54;11.00;;;7.20;;
39018;SDS011;24786;51.984;5.872;2022-08-21T07:04:20;8.73;;;7.05;;
39018;SDS011;24786;51.984;5.872;2022-08-21T07:06:45;11.25;;;6.97;;
39018;SDS011;24786;51.984;5.872;2022-08-21T07:09:11;9.88;;;6.93;;
39018;SDS011;24786;51.984;5.872;2022-08-21T07:11:37;13.23;;;5.78;;
39018;SDS011;24786;51.984;5.872;2022-08-21T07:14:03;9.52;;;6.65;;
39018;SDS011;24786;51.984;5.872;2022-08-21T07:16:29;12.25;;;6.18;;
39018;SDS011;24786;51.984;5.872;2022-08-21T07:18:54;11.40;;;6.95;;
39018;SDS011;24786;51.984;5.872;2022-08-21T07:21:20;8.57;;;6.20;;
39018;SDS011;24786;51.984;5.872;2022-08-21T07:23:47;9.48;;;5.97;;
39018;SDS011;24786;51.984;5.872;2022-08-21T07:26:15;11.93;;;5.40;;
39018;SDS011;24786;51.984;5.872;2022-08-21T07:28:42;10.02;;;5.55;;
39018;SDS011;24786;51.984;5.872;2022-08-21T07:31:09;14.35;;;6.28;;
39018;SDS011;24786;51.984;5.872;2022-08-21T07:33:38;7.95;;;5.95;;
39018;SDS011;24786;51.984;5.872;2022-08-21T07:36:04;10.38;;;6.30;;
39018;SDS011;24786;51.984;5.872;2022-08-21T07:38:30;9.68;;;5.93;;
39018;SDS011;24786;51.984;5.872;2022-08-21T07:40:56;12.20;;;6.32;;
39018;SDS011;24786;51.984;5.872;2022-08-21T07:43:25;8.80;;;5.70;;
39018;SDS011;24786;51.984;5.872;2022-08-21T07:45:51;7.40;;;4.93;;
39018;SDS011;24786;51.984;5.872;2022-08-21T07:48:18;9.25;;;5.93;;
39018;SDS011;24786;51.984;5.872;2022-08-21T07:50:45;12.38;;;5.90;;
39018;SDS011;24786;51.984;5.872;2022-08-21T07:53:11;8.60;;;4.85;;
39018;SDS011;24786;51.984;5.872;2022-08-21T07:55:39;11.70;;;5.57;;
39018;SDS011;24786;51.984;5.872;2022-08-21T07:58:05;8.57;;;5.50;;
39018;SDS011;24786;51.984;5.872;2022-08-21T08:00:31;9.80;;;5.93;;
39018;SDS011;24786;51.984;5.872;2022-08-21T08:02:57;9.52;;;5.22;;
39018;SDS011;24786;51.984;5.872;2022-08-21T08:05:24;8.35;;;5.03;;
39018;SDS011;24786;51.984;5.872;2022-08-21T08:07:53;9.93;;;5.60;;
39018;SDS011;24786;51.984;5.872;2022-08-21T08:10:19;9.82;;;5.97;;
39018;SDS011;24786;51.984;5.872;2022-08-21T08:12:45;9.05;;;5.43;;
39018;SDS011;24786;51.984;5.872;2022-08-21T08:15:12;13.77;;;5.38;;
39018;SDS011;24786;51.984;5.872;2022-08-21T08:17:40;7.25;;;5.05;;
39018;SDS011;24786;51.984;5.872;2022-08-21T08:20:07;6.63;;;5.10;;
39018;SDS011;24786;51.984;5.872;2022-08-21T08:22:35;9.52;;;5.32;;
39018;SDS011;24786;51.984;5.872;2022-08-21T08:25:02;11.48;;;5.07;;
39018;SDS011;24786;51.984;5.872;2022-08-21T08:27:29;10.52;;;4.35;;
39018;SDS011;24786;51.984;5.872;2022-08-21T08:29:56;9.68;;;4.43;;
39018;SDS011;24786;51.984;5.872;2022-08-21T08:32:21;10.02;;;4.63;;
39018;SDS011;24786;51.984;5.872;2022-08-21T08:34:47;11.35;;;5.32;;
39018;SDS011;24786;51.984;5.872;2022-08-21T08:37:14;11.77;;;5.85;;
39018;SDS011;24786;51.984;5.872;2022-08-21T08:39:40;14.18;;;5.40;;
39018;SDS011;24786;51.984;5.872;2022-08-21T08:44:43;11.50;;;4.85;;
39018;SDS011;24786;51.984;5.872;2022-08-21T08:47:10;6.00;;;3.42;;
39018;SDS011;24786;51.984;5.872;2022-08-21T08:52:10;8.35;;;4.13;;
39018;SDS011;24786;51.984;5.872;2022-08-21T08:54:48;8.88;;;3.78;;
39018;SDS011;24786;51.984;5.872;2022-08-21T08:57:23;8.52;;;4.28;;
39018;SDS011;24786;51.984;5.872;2022-08-21T08:59:52;6.15;;;3.80;;
39018;SDS011;24786;51.984;5.872;2022-08-21T09:02:22;9.27;;;3.53;;
39018;SDS011;24786;51.984;5.872;2022-08-21T09:04:48;11.13;;;3.80;;
39018;SDS011;24786;51.984;5.872;2022-08-21T09:07:18;7.68;;;3.50;;
39018;SDS011;24786;51.984;5.872;2022-08-21T09:15:29;10.82;;;3.13;;
39018;SDS011;24786;51.984;5.872;2022-08-21T09:23:55;8.13;;;3.28;;
39018;SDS011;24786;51.984;5.872;2022-08-21T09:29:37;6.75;;;2.38;;
39018;SDS011;24786;51.984;5.872;2022-08-21T09:32:09;5.65;;;2.53;;
39018;SDS011;24786;51.984;5.872;2022-08-21T09:37:30;5.38;;;2.55;;
39018;SDS011;24786;51.984;5.872;2022-08-21T09:39:59;4.53;;;1.95;;
39018;SDS011;24786;51.984;5.872;2022-08-21T09:42:27;4.30;;;2.13;;
39018;SDS011;24786;51.984;5.872;2022-08-21T09:45:17;6.80;;;2.05;;
39018;SDS011;24786;51.984;5.872;2022-08-21T09:47:43;5.18;;;2.15;;
39018;SDS011;24786;51.984;5.872;2022-08-21T09:50:21;5.35;;;2.13;;
39018;SDS011;24786;51.984;5.872;2022-08-21T09:55:22;7.00;;;2.50;;
39018;SDS011;24786;51.984;5.872;2022-08-21T09:58:16;5.65;;;1.80;;
39018;SDS011;24786;51.984;5.872;2022-08-21T10:00:43;5.72;;;2.25;;
39018;SDS011;24786;51.984;5.872;2022-08-21T10:03:10;6.03;;;1.92;;
39018;SDS011;24786;51.984;5.872;2022-08-21T10:05:57;4.40;;;1.73;;
39018;SDS011;24786;51.984;5.872;2022-08-21T10:08:35;3.72;;;1.85;;
39018;SDS011;24786;51.984;5.872;2022-08-21T10:11:07;7.97;;;1.83;;
39018;SDS011;24786;51.984;5.872;2022-08-21T10:13:47;1.65;;;1.55;;
39018;SDS011;24786;51.984;5.872;2022-08-21T10:16:21;6.68;;;2.28;;
39018;SDS011;24786;51.984;5.872;2022-08-21T10:22:08;5.03;;;1.90;;
39018;SDS011;24786;51.984;5.872;2022-08-21T10:30:13;2.85;;;1.88;;
39018;SDS011;24786;51.984;5.872;2022-08-21T10:35:29;5.80;;;1.95;;
39018;SDS011;24786;51.984;5.872;2022-08-21T10:40:46;5.10;;;1.77;;
39018;SDS011;24786;51.984;5.872;2022-08-21T10:46:36;3.70;;;1.75;;
39018;SDS011;24786;51.984;5.872;2022-08-21T10:49:17;3.97;;;1.60;;
39018;SDS011;24786;51.984;5.872;2022-08-21T10:54:49;3.88;;;1.70;;
39018;SDS011;24786;51.984;5.872;2022-08-21T10:57:41;3.83;;;1.23;;
39018;SDS011;24786;51.984;5.872;2022-08-21T11:00:12;2.72;;;1.35;;
39018;SDS011;24786;51.984;5.872;2022-08-21T11:05:17;4.85;;;1.50;;
39018;SDS011;24786;51.984;5.872;2022-08-21T11:07:51;4.72;;;1.60;;
39018;SDS011;24786;51.984;5.872;2022-08-21T11:12:52;2.55;;;1.27;;
39018;SDS011;24786;51.984;5.872;2022-08-21T11:20:41;4.45;;;1.63;;
39018;SDS011;24786;51.984;5.872;2022-08-21T11:23:25;2.33;;;1.40;;
39018;SDS011;24786;51.984;5.872;2022-08-21T11:26:01;3.47;;;1.60;;
39018;SDS011;24786;51.984;5.872;2022-08-21T11:28:35;3.75;;;1.60;;
39018;SDS011;24786;51.984;5.872;2022-08-21T11:34:07;2.25;;;1.30;;
39018;SDS011;24786;51.984;5.872;2022-08-21T11:39:16;3.83;;;1.48;;
39018;SDS011;24786;51.984;5.872;2022-08-21T11:44:48;4.57;;;1.40;;
39018;SDS011;24786;51.984;5.872;2022-08-21T11:50:14;3.10;;;1.42;;
39018;SDS011;24786;51.984;5.872;2022-08-21T11:52:44;2.72;;;1.30;;
39018;SDS011;24786;51.984;5.872;2022-08-21T11:55:18;3.90;;;1.55;;
39018;SDS011;24786;51.984;5.872;2022-08-21T11:57:53;2.35;;;1.42;;
39018;SDS011;24786;51.984;5.872;2022-08-21T12:00:28;2.55;;;1.30;;
39018;SDS011;24786;51.984;5.872;2022-08-21T12:02:59;2.38;;;1.17;;
39018;SDS011;24786;51.984;5.872;2022-08-21T12:05:58;2.85;;;1.33;;
39018;SDS011;24786;51.984;5.872;2022-08-21T12:08:30;4.30;;;1.42;;
39018;SDS011;24786;51.984;5.872;2022-08-21T12:11:08;3.70;;;1.75;;
39018;SDS011;24786;51.984;5.872;2022-08-21T12:13:36;2.65;;;1.48;;
39018;SDS011;24786;51.984;5.872;2022-08-21T12:16:49;2.50;;;1.50;;
39018;SDS011;24786;51.984;5.872;2022-08-21T12:21:48;3.78;;;1.55;;
39018;SDS011;24786;51.984;5.872;2022-08-21T12:26:58;2.03;;;1.40;;
39018;SDS011;24786;51.984;5.872;2022-08-21T12:30:00;2.25;;;1.15;;
39018;SDS011;24786;51.984;5.872;2022-08-21T12:37:40;2.90;;;1.17;;
39018;SDS011;24786;51.984;5.872;2022-08-21T12:40:22;5.15;;;1.50;;
39018;SDS011;24786;51.984;5.872;2022-08-21T12:42:53;3.55;;;1.60;;
39018;SDS011;24786;51.984;5.872;2022-08-21T12:45:32;4.50;;;1.70;;
39018;SDS011;24786;51.984;5.872;2022-08-21T12:48:09;3.28;;;1.20;;
39018;SDS011;24786;51.984;5.872;2022-08-21T12:50:49;3.35;;;1.23;;
39018;SDS011;24786;51.984;5.872;2022-08-21T12:55:53;2.40;;;1.33;;
39018;SDS011;24786;51.984;5.872;2022-08-21T12:58:24;2.40;;;1.00;;
39018;SDS011;24786;51.984;5.872;2022-08-21T13:00:52;4.22;;;1.08;;
39018;SDS011;24786;51.984;5.872;2022-08-21T13:03:22;3.03;;;1.23;;
39018;SDS011;24786;51.984;5.872;2022-08-21T13:05:49;1.40;;;0.95;;
39018;SDS011;24786;51.984;5.872;2022-08-21T13:08:18;4.05;;;1.60;;
39018;SDS011;24786;51.984;5.872;2022-08-21T13:10:45;3.50;;;1.50;;
39018;SDS011;24786;51.984;5.872;2022-08-21T13:15:44;4.53;;;1.40;;
39018;SDS011;24786;51.984;5.872;2022-08-21T13:18:18;1.60;;;1.13;;
39018;SDS011;24786;51.984;5.872;2022-08-21T13:20:47;1.88;;;1.08;;
39018;SDS011;24786;51.984;5.872;2022-08-21T13:23:23;2.67;;;1.15;;
39018;SDS011;24786;51.984;5.872;2022-08-21T13:25:53;1.23;;;1.02;;
39018;SDS011;24786;51.984;5.872;2022-08-21T13:28:20;1.98;;;1.02;;
39018;SDS011;24786;51.984;5.872;2022-08-21T13:30:47;0.77;;;0.77;;
39018;SDS011;24786;51.984;5.872;2022-08-21T13:33:15;1.58;;;1.05;;
39018;SDS011;24786;51.984;5.872;2022-08-21T13:38:22;2.80;;;1.50;;
39018;SDS011;24786;51.984;5.872;2022-08-21T13:40:53;1.83;;;1.20;;
39018;SDS011;24786;51.984;5.872;2022-08-21T13:43:34;3.97;;;1.20;;
39018;SDS011;24786;51.984;5.872;2022-08-21T13:46:01;2.10;;;1.20;;
39018;SDS011;24786;51.984;5.872;2022-08-21T13:48:32;2.38;;;1.17;;
39018;SDS011;24786;51.984;5.872;2022-08-21T13:50:59;4.93;;;1.38;;
39018;SDS011;24786;51.984;5.872;2022-08-21T13:55:59;2.67;;;1.20;;
39018;SDS011;24786;51.984;5.872;2022-08-21T13:58:30;1.25;;;1.15;;
39018;SDS011;24786;51.984;5.872;2022-08-21T14:00:57;3.17;;;1.33;;
39018;SDS011;24786;51.984;5.872;2022-08-21T14:03:32;2.80;;;1.30;;
39018;SDS011;24786;51.984;5.872;2022-08-21T14:06:12;4.07;;;1.10;;
39018;SDS011;24786;51.984;5.872;2022-08-21T14:08:41;3.83;;;1.83;;
39018;SDS011;24786;51.984;5.872;2022-08-21T14:11:12;2.70;;;2.03;;
39018;SDS011;24786;51.984;5.872;2022-08-21T14:13:45;3.03;;;1.20;;
39018;SDS011;24786;51.984;5.872;2022-08-21T14:18:46;2.58;;;1.20;;
39018;SDS011;24786;51.984;5.872;2022-08-21T14:21:24;3.65;;;1.38;;
39018;SDS011;24786;51.984;5.872;2022-08-21T14:26:49;3.13;;;1.40;;
39018;SDS011;24786;51.984;5.872;2022-08-21T14:29:22;1.92;;;1.02;;
39018;SDS011;24786;51.984;5.872;2022-08-21T14:31:55;5.47;;;1.40;;
39018;SDS011;24786;51.984;5.872;2022-08-21T14:34:23;1.25;;;1.15;;
39018;SDS011;24786;51.984;5.872;2022-08-21T14:36:51;2.65;;;1.23;;
39018;SDS011;24786;51.984;5.872;2022-08-21T14:39:17;2.47;;;1.15;;
39018;SDS011;24786;51.984;5.872;2022-08-21T14:41:43;1.88;;;1.10;;
39018;SDS011;24786;51.984;5.872;2022-08-21T14:44:11;4.53;;;1.42;;
39018;SDS011;24786;51.984;5.872;2022-08-21T14:46:38;2.42;;;1.20;;
39018;SDS011;24786;51.984;5.872;2022-08-21T14:49:04;2.00;;;1.20;;
39018;SDS011;24786;51.984;5.872;2022-08-21T14:51:30;4.82;;;1.20;;
39018;SDS011;24786;51.984;5.872;2022-08-21T14:53:55;2.75;;;1.20;;
39018;SDS011;24786;51.984;5.872;2022-08-21T14:56:21;3.25;;;1.10;;
39018;SDS011;24786;51.984;5.872;2022-08-21T14:58:48;3.25;;;1.00;;
39018;SDS011;24786;51.984;5.872;2022-08-21T15:01:17;2.53;;;1.38;;
39018;SDS011;24786;51.984;5.872;2022-08-21T15:03:44;2.17;;;1.20;;
39018;SDS011;24786;51.984;5.872;2022-08-21T15:06:11;3.80;;;1.40;;
39018;SDS011;24786;51.984;5.872;2022-08-21T15:08:37;1.80;;;1.15;;
39018;SDS011;24786;51.984;5.872;2022-08-21T15:11:03;3.72;;;1.27;;
39018;SDS011;24786;51.984;5.872;2022-08-21T15:13:30;5.45;;;1.23;;
39018;SDS011;24786;51.984;5.872;2022-08-21T15:15:57;3.05;;;1.75;;
39018;SDS011;24786;51.984;5.872;2022-08-21T15:18:24;2.13;;;1.20;;
39018;SDS011;24786;51.984;5.872;2022-08-21T15:20:51;2.67;;;1.20;;
39018;SDS011;24786;51.984;5.872;2022-08-21T15:23:17;2.20;;;1.17;;
39018;SDS011;24786;51.984;5.872;2022-08-21T15:25:44;2.45;;;1.30;;
39018;SDS011;24786;51.984;5.872;2022-08-21T15:30:39;1.35;;;1.00;;
39018;SDS011;24786;51.984;5.872;2022-08-21T15:33:06;4.15;;;1.25;;
39018;SDS011;24786;51.984;5.872;2022-08-21T15:35:32;2.55;;;1.20;;
39018;SDS011;24786;51.984;5.872;2022-08-21T15:37:58;3.15;;;1.77;;
39018;SDS011;24786;51.984;5.872;2022-08-21T15:40:24;2.42;;;1.40;;
39018;SDS011;24786;51.984;5.872;2022-08-21T15:42:51;3.30;;;1.48;;
39018;SDS011;24786;51.984;5.872;2022-08-21T15:45:21;1.55;;;1.10;;
39018;SDS011;24786;51.984;5.872;2022-08-21T15:47:47;2.97;;;1.35;;
39018;SDS011;24786;51.984;5.872;2022-08-21T15:50:14;2.67;;;1.00;;
39018;SDS011;24786;51.984;5.872;2022-08-21T15:52:40;3.72;;;1.55;;
39018;SDS011;24786;51.984;5.872;2022-08-21T15:55:05;2.20;;;1.35;;
39018;SDS011;24786;51.984;5.872;2022-08-21T15:57:31;1.73;;;1.30;;
39018;SDS011;24786;51.984;5.872;2022-08-21T16:00:00;3.70;;;1.45;;
39018;SDS011;24786;51.984;5.872;2022-08-21T16:02:36;3.25;;;1.80;;
39018;SDS011;24786;51.984;5.872;2022-08-21T16:05:03;1.27;;;1.17;;
39018;SDS011;24786;51.984;5.872;2022-08-21T16:07:29;1.98;;;1.15;;
39018;SDS011;24786;51.984;5.872;2022-08-21T16:09:54;5.60;;;1.27;;
39018;SDS011;24786;51.984;5.872;2022-08-21T16:12:24;1.52;;;1.15;;
39018;SDS011;24786;51.984;5.872;2022-08-21T16:14:56;1.98;;;1.30;;
39018;SDS011;24786;51.984;5.872;2022-08-21T16:17:24;4.90;;;1.05;;
39018;SDS011;24786;51.984;5.872;2022-08-21T16:19:54;3.58;;;1.17;;
39018;SDS011;24786;51.984;5.872;2022-08-21T16:22:20;2.17;;;0.90;;
39018;SDS011;24786;51.984;5.872;2022-08-21T16:24:45;2.55;;;1.20;;
39018;SDS011;24786;51.984;5.872;2022-08-21T16:27:11;1.58;;;1.05;;
39018;SDS011;24786;51.984;5.872;2022-08-21T16:29:38;3.60;;;1.65;;
39018;SDS011;24786;51.984;5.872;2022-08-21T16:32:04;4.18;;;1.13;;